Aérodrome :
LOGIN :

S'inscrire | Disclaimer

   EN    FR    IT 

 










Légende :    VFR   VFR Marginal   IFR   IFR Intensif   IFR Très Intensif
Visi : 
Plafond : 
>= 8 km
>= 3000ft
5 à 8 km
1000 à 3000 ft
1500m à 5 km
500 à 1000 ft
800 à 1500m
200 à 500 ft
< 800m
< 200 ft
Symboles :   Orages  Brouillard  Fortes neiges  Fortes précipitations  Vent > 20 kt
SIGMETs :   Divers  Orages  Givrage  Turbulence  Onde Orograph.  Cendres Volcan.







- Altitude de l'aérodrome : 789 ft
- Code IATA : BZO


LIPB - Bolzano

DERNIER METAR :
  • 141250Z 00000KT 9999 FEW045 SCT060 04/M04 Q1006

METARs EXPIRÉS :
  • 141150Z VRB02KT 9999 FEW045 BKN060 03/M04 Q1007
  • 141050Z VRB02KT 9999 FEW045 BKN060 02/M03 Q1008

TAF TAF LIPB
Valide du 14 à 12h jusqu'au 15 à 12h UTC


141100Z 1412/1512 VRB05KT 9999 SCT060
TEMPO 1500/1506 RA
Pas de NOTAMs connus pour ce terrain.
2 SIGMETs publiés pour la FIR Milano (LIMM) :
 
Turbulence forte
LIMM SIGMET 2 VALID 140940/141340 LIIP
LIMM MILANO FIR SEV TURB FCST S OF LINE N4409 E00701 - N4425 E01340 FL020/100 STNR NC=
Turbulence forte
LIMM SIGMET 1 VALID 140940/141340 LIIP
LIMM MILANO FIR SEV TURB FCST WI N4334 E00825 - N4555 E01042 - N4553 E00652 - N4504 E00639 - N4348 E00731 - N4334 E00825 FL100/240 STNR NC=



MET'MAP, la Météo Aéronautique d'un coup d'oeil ! - Copyright ORBIFLY Décembre 2007 - Disclaimer

ORBIFLY MET'MAP TEAM :

Programmation & Développement : Alexandra Zaïnal
Conception & Développement : Baudouin d'Aumeries
Co-Programmation & Développement : Marc-Olivier Méhu
Soutien technique & logistique : Manuel Goepfert

Contact : metmap@orbifly.com




SOURCES & CREDITS :

   NOAA